createdAt,value
2018-08-11T00:01:54.194Z,57.40
2018-08-11T00:08:13.289Z,59.00
2018-08-11T00:11:20.046Z,59.80
2018-08-11T00:17:21.839Z,60.10
2018-08-11T00:20:10.735Z,60.60
2018-08-11T00:22:44.313Z,62.00
2018-08-11T00:25:46.731Z,62.20
2018-08-11T00:28:51.527Z,62.30
2018-08-11T00:31:36.036Z,62.60
2018-08-11T00:41:37.261Z,63.40
2018-08-11T00:44:14.433Z,63.40
2018-08-11T00:47:17.779Z,63.50
2018-08-11T00:49:50.262Z,63.10
2018-08-11T00:52:34.964Z,62.90
2018-08-11T00:55:05.592Z,62.50
2018-08-11T00:57:41.405Z,62.10
2018-08-11T01:00:17.917Z,62.00
2018-08-11T01:02:49.233Z,61.30
2018-08-11T01:05:28.539Z,60.90
2018-08-11T01:08:00.317Z,61.20
2018-08-11T01:10:45.384Z,60.90
2018-08-11T01:13:40.136Z,61.20
2018-08-11T01:16:28.277Z,61.50
2018-08-11T01:22:30.434Z,62.30
2018-08-11T01:25:24.877Z,62.70
2018-08-11T01:31:38.102Z,62.70
2018-08-11T01:34:49.421Z,63.20
2018-08-11T01:40:24.724Z,63.60
2018-08-11T01:42:55.263Z,64.10
2018-08-11T01:45:26.947Z,66.60
2018-08-11T01:47:57.712Z,72.50
2018-08-11T01:50:32.244Z,76.70
2018-08-11T01:53:02.529Z,79.90
2018-08-11T01:55:35.150Z,84.30
2018-08-11T01:58:29.044Z,88.40
2018-08-11T02:05:16.918Z,93.10
2018-08-11T02:07:47.449Z,93.10
2018-08-11T02:10:22.579Z,93.30
2018-08-11T02:12:53.560Z,93.50
2018-08-11T02:15:26.775Z,93.50
2018-08-11T02:21:15.350Z,94.40
2018-08-11T02:23:48.097Z,94.30
2018-08-11T02:26:17.826Z,94.30
2018-08-11T02:28:47.638Z,94.50
2018-08-11T02:31:17.925Z,94.80
2018-08-11T02:33:48.978Z,96.00
2018-08-11T02:36:22.733Z,95.60
2018-08-11T02:38:58.061Z,96.10
2018-08-11T02:44:13.592Z,99.30
2018-08-11T02:46:44.326Z,99.70
2018-08-11T02:49:15.155Z,99.90
2018-08-11T02:51:45.776Z,99.90
2018-08-11T02:54:16.393Z,99.90
2018-08-11T02:56:46.112Z,99.90
2018-08-11T02:59:20.692Z,99.90
2018-08-11T03:01:52.194Z,99.90
2018-08-11T03:04:25.021Z,99.90
2018-08-11T03:06:55.843Z,99.90
2018-08-11T03:09:26.201Z,99.90
2018-08-11T03:11:56.447Z,99.90
2018-08-11T03:14:28.491Z,99.90
2018-08-11T03:17:00.422Z,99.90
2018-08-11T03:19:35.519Z,99.90
2018-08-11T03:22:17.646Z,99.90
2018-08-11T03:24:49.690Z,99.90
2018-08-11T03:27:19.455Z,99.90
2018-08-11T03:29:52.904Z,99.90
2018-08-11T03:32:24.203Z,99.90
2018-08-11T03:34:57.688Z,99.90
2018-08-11T03:37:27.524Z,99.90
2018-08-11T03:39:57.171Z,99.90
2018-08-11T03:42:36.136Z,99.90
2018-08-11T03:45:06.401Z,99.90
2018-08-11T03:47:35.929Z,99.90
2018-08-11T03:50:05.843Z,99.90
2018-08-11T03:52:39.765Z,99.90
2018-08-11T03:55:08.994Z,99.90
2018-08-11T03:57:41.083Z,99.90
2018-08-11T04:00:13.227Z,99.90
2018-08-11T04:02:43.952Z,99.90
2018-08-11T04:05:29.572Z,99.90
2018-08-11T04:08:04.385Z,99.90
2018-08-11T04:10:47.989Z,99.90
2018-08-11T04:16:16.753Z,99.90
2018-08-11T04:18:48.756Z,99.90
2018-08-11T04:21:18.209Z,99.90
2018-08-11T04:23:48.143Z,99.90
2018-08-11T04:26:18.083Z,99.90
2018-08-11T04:28:48.927Z,99.90
2018-08-11T04:31:18.878Z,99.90
2018-08-11T04:33:50.048Z,99.90
2018-08-11T04:36:21.480Z,99.90
2018-08-11T04:38:53.610Z,99.90
2018-08-11T04:41:23.137Z,99.90
2018-08-11T04:43:52.540Z,99.90
2018-08-11T04:46:24.659Z,99.90
2018-08-11T04:48:55.055Z,99.90
2018-08-11T04:51:31.541Z,99.90
2018-08-11T04:54:03.322Z,99.90
2018-08-11T04:56:32.623Z,99.90
2018-08-11T04:59:01.995Z,99.90
2018-08-11T05:01:31.306Z,99.90
2018-08-11T05:04:01.138Z,99.90
2018-08-11T05:06:31.055Z,99.90
2018-08-11T05:11:42.003Z,99.90
2018-08-11T05:14:15.535Z,99.90
2018-08-11T05:16:51.826Z,99.90
2018-08-11T05:19:22.457Z,99.90
2018-08-11T05:21:51.786Z,99.90
2018-08-11T05:24:23.449Z,99.90
2018-08-11T05:26:53.499Z,99.90
2018-08-11T05:29:22.755Z,99.90
2018-08-11T05:31:52.271Z,99.90
2018-08-11T05:34:22.232Z,99.90
2018-08-11T05:36:51.543Z,99.90
2018-08-11T05:39:25.575Z,99.90
2018-08-11T05:41:56.470Z,99.90
2018-08-11T05:44:26.068Z,99.90
2018-08-11T05:46:56.295Z,99.90
2018-08-11T05:49:25.434Z,99.90
2018-08-11T05:52:04.846Z,99.90
2018-08-11T05:54:34.576Z,99.90
2018-08-11T05:57:04.321Z,99.90
2018-08-11T05:59:33.884Z,99.90
2018-08-11T06:02:03.763Z,99.90
2018-08-11T06:04:33.266Z,99.90
2018-08-11T06:07:02.459Z,99.90
2018-08-11T06:09:32.989Z,99.60
2018-08-11T06:12:02.851Z,99.60
2018-08-11T06:14:33.193Z,99.60
2018-08-11T06:17:02.755Z,99.80
2018-08-11T06:19:32.775Z,99.90
2018-08-11T06:22:02.587Z,99.10
2018-08-11T06:24:35.720Z,97.50
2018-08-11T06:27:05.117Z,95.70
2018-08-11T06:29:35.065Z,94.60
2018-08-11T06:32:04.689Z,95.20
2018-08-11T06:34:33.931Z,95.60
2018-08-11T06:37:05.400Z,96.50
2018-08-11T06:39:36.529Z,96.90
2018-08-11T06:42:07.860Z,96.80
2018-08-11T06:44:37.316Z,96.90
2018-08-11T06:47:06.756Z,95.80
2018-08-11T06:49:37.380Z,94.30
2018-08-11T06:52:07.034Z,93.70
2018-08-11T06:54:37.293Z,92.00
2018-08-11T06:57:07.253Z,90.90
2018-08-11T06:59:37.366Z,90.70
2018-08-11T07:02:07.502Z,90.40
2018-08-11T07:04:38.184Z,90.40
2018-08-11T07:07:08.060Z,89.10
2018-08-11T07:09:38.081Z,86.30
2018-08-11T07:12:07.913Z,88.20
2018-08-11T07:14:46.713Z,88.30
2018-08-11T07:17:27.990Z,83.80
2018-08-11T07:19:57.740Z,83.40
2018-08-11T07:22:28.799Z,83.80
2018-08-11T07:24:58.582Z,79.90
2018-08-11T07:27:30.153Z,78.70
2018-08-11T07:30:00.742Z,78.80
2018-08-11T07:32:53.447Z,73.40
2018-08-11T07:35:37.497Z,70.00
2018-08-11T07:38:09.274Z,67.40
2018-08-11T07:40:39.964Z,65.00
2018-08-11T07:43:10.896Z,57.70
2018-08-11T07:45:42.555Z,58.10
2018-08-11T07:48:13.076Z,60.10
2018-08-11T07:50:43.077Z,60.80
2018-08-11T07:53:17.277Z,62.50
2018-08-11T07:56:04.228Z,63.80
2018-08-11T07:58:33.777Z,58.80
2018-08-11T08:01:04.792Z,58.80
2018-08-11T08:06:15.656Z,58.70
2018-08-11T08:08:47.823Z,56.80
2018-08-11T08:11:21.428Z,55.70
2018-08-11T08:13:52.841Z,56.30
2018-08-11T08:16:24.442Z,55.20
2018-08-11T08:18:58.095Z,50.70
2018-08-11T08:21:27.899Z,46.30
2018-08-11T08:23:58.056Z,46.70
2018-08-11T08:26:29.214Z,48.80
2018-08-11T08:29:00.503Z,49.90
2018-08-11T08:31:30.256Z,49.70
2018-08-11T08:34:00.283Z,49.10
2018-08-11T08:36:36.177Z,52.30
2018-08-11T08:39:13.198Z,49.60
2018-08-11T08:41:49.821Z,46.80
2018-08-11T08:44:22.011Z,44.10
2018-08-11T08:46:53.575Z,43.20
2018-08-11T08:49:23.759Z,43.70
2018-08-11T08:51:53.798Z,41.70
2018-08-11T08:54:23.338Z,38.30
2018-08-11T08:56:59.440Z,37.60
2018-08-11T08:59:32.238Z,37.80
2018-08-11T09:02:04.654Z,38.30
2018-08-11T09:04:34.237Z,37.00
2018-08-11T09:07:06.335Z,38.60
2018-08-11T09:09:38.603Z,40.00
2018-08-11T09:12:10.873Z,39.90
2018-08-11T09:14:43.061Z,39.40
2018-08-11T09:17:13.819Z,39.20
2018-08-11T09:19:43.791Z,39.40
2018-08-11T09:22:15.557Z,38.70
2018-08-11T09:24:46.766Z,38.50
2018-08-11T09:27:19.208Z,37.80
2018-08-11T09:29:50.391Z,34.50
2018-08-11T09:32:20.615Z,33.00
2018-08-11T09:34:51.941Z,32.60
2018-08-11T09:37:21.638Z,34.60
2018-08-11T09:39:54.167Z,37.50
2018-08-11T09:42:23.764Z,37.20
2018-08-11T09:44:55.237Z,37.90
2018-08-11T09:47:27.409Z,35.20
2018-08-11T09:49:58.683Z,34.40
2018-08-11T09:52:29.070Z,35.50
2018-08-11T09:54:58.818Z,37.80
2018-08-11T09:57:42.499Z,39.10
2018-08-11T10:00:26.128Z,39.30
2018-08-11T10:02:56.854Z,39.30
2018-08-11T10:05:47.636Z,40.00
2018-08-11T10:08:33.719Z,38.60
2018-08-11T10:11:05.214Z,36.80
2018-08-11T10:13:35.078Z,35.40
2018-08-11T10:16:05.373Z,34.90
2018-08-11T10:18:37.534Z,35.80
2018-08-11T10:21:08.720Z,35.40
2018-08-11T10:23:40.187Z,34.10
2018-08-11T10:26:11.001Z,32.70
2018-08-11T10:28:48.144Z,31.70
2018-08-11T10:31:17.608Z,31.60
2018-08-11T10:33:59.304Z,30.30
2018-08-11T10:36:30.836Z,30.50
2018-08-11T10:39:08.556Z,31.50
2018-08-11T10:41:49.420Z,33.10
2018-08-11T10:44:24.049Z,31.20
2018-08-11T10:47:06.158Z,30.00
2018-08-11T10:49:36.823Z,29.90
2018-08-11T10:52:11.007Z,29.40
2018-08-11T10:54:49.234Z,29.70
2018-08-11T10:57:21.207Z,28.70
2018-08-11T11:00:04.272Z,28.20
2018-08-11T11:02:43.409Z,28.80
2018-08-11T11:05:17.785Z,30.30
2018-08-11T11:07:54.611Z,32.10
2018-08-11T11:10:26.770Z,31.00
2018-08-11T11:13:00.756Z,29.70
2018-08-11T11:19:12.216Z,31.40
2018-08-11T11:25:52.893Z,29.30
2018-08-11T11:28:23.524Z,29.00
2018-08-11T11:30:59.361Z,30.00
2018-08-11T11:33:34.809Z,32.70
2018-08-11T11:36:10.028Z,33.50
2018-08-11T11:38:43.711Z,33.30
2018-08-11T11:41:23.981Z,32.20
2018-08-11T11:43:58.233Z,29.50
2018-08-11T11:46:31.098Z,28.40
2018-08-11T11:49:18.438Z,28.10
2018-08-11T11:51:56.180Z,28.20
2018-08-11T11:54:29.264Z,27.90
2018-08-11T11:57:03.332Z,27.10
2018-08-11T11:59:34.981Z,28.20
2018-08-11T12:02:31.627Z,29.90
2018-08-11T12:05:22.653Z,30.70
2018-08-11T12:07:54.719Z,29.80
2018-08-11T12:10:35.342Z,30.40
2018-08-11T12:13:07.663Z,30.20
2018-08-11T12:15:41.601Z,29.80
2018-08-11T12:18:13.889Z,28.50
2018-08-11T12:20:49.800Z,29.00
2018-08-11T12:23:37.848Z,28.40
2018-08-11T12:26:08.624Z,28.10
2018-08-11T12:28:43.090Z,27.20
2018-08-11T12:31:27.415Z,26.60
2018-08-11T12:34:06.949Z,26.50
2018-08-11T12:36:53.308Z,25.80
2018-08-11T12:39:24.272Z,26.60
2018-08-11T12:41:56.286Z,27.20
2018-08-11T12:44:29.667Z,27.80
2018-08-11T12:48:07.541Z,27.50
2018-08-11T12:57:08.589Z,27.60
2018-08-11T12:59:39.437Z,28.40
2018-08-11T13:02:29.939Z,27.90
2018-08-11T13:05:03.017Z,26.70
2018-08-11T13:07:40.271Z,26.40
2018-08-11T13:10:19.277Z,27.20
2018-08-11T13:13:00.152Z,28.90
2018-08-11T13:15:35.283Z,28.80
2018-08-11T13:18:05.975Z,29.30
2018-08-11T13:20:36.371Z,29.80
2018-08-11T13:23:07.064Z,29.70
2018-08-11T13:25:38.375Z,29.40
2018-08-11T13:28:12.081Z,28.40
2018-08-11T13:30:43.090Z,28.30
2018-08-11T13:33:15.331Z,28.60
2018-08-11T13:35:54.861Z,28.80
2018-08-11T13:38:36.137Z,28.00
2018-08-11T13:41:07.447Z,28.00
2018-08-11T13:43:37.217Z,28.30
2018-08-11T13:46:10.864Z,27.70
2018-08-11T13:48:45.544Z,27.90
2018-08-11T13:51:33.026Z,27.40
2018-08-11T13:54:04.371Z,29.00
2018-08-11T13:56:37.106Z,30.30
2018-08-11T13:59:07.667Z,30.90
2018-08-11T14:01:38.770Z,31.30
2018-08-11T14:04:10.817Z,31.80
2018-08-11T14:06:41.830Z,32.20
2018-08-11T14:09:21.624Z,32.60
2018-08-11T14:11:53.868Z,32.90
2018-08-11T14:14:24.773Z,32.80
2018-08-11T14:16:54.453Z,33.00
2018-08-11T14:19:24.573Z,33.30
2018-08-11T14:22:14.256Z,32.70
2018-08-11T14:25:00.425Z,32.70
2018-08-11T14:27:46.144Z,32.80
2018-08-11T14:30:32.601Z,32.60
2018-08-11T14:33:12.580Z,32.60
2018-08-11T14:35:51.630Z,32.70
2018-08-11T14:38:25.869Z,32.20
2018-08-11T14:40:55.780Z,32.50
2018-08-11T14:47:09.381Z,33.10
2018-08-11T14:49:39.577Z,33.00
2018-08-11T14:52:10.216Z,33.20
2018-08-11T14:54:51.889Z,33.30
2018-08-11T14:57:23.230Z,33.30
2018-08-11T14:59:56.749Z,32.90
2018-08-11T15:02:29.089Z,32.80
2018-08-11T15:05:00.401Z,33.20
2018-08-11T15:07:36.046Z,33.50
2018-08-11T15:10:15.132Z,34.00
2018-08-11T15:12:51.500Z,32.50
2018-08-11T15:15:25.009Z,32.70
2018-08-11T15:17:54.793Z,33.30
2018-08-11T15:20:28.691Z,33.80
2018-08-11T15:23:09.604Z,34.40
2018-08-11T15:25:41.561Z,34.60
2018-08-11T15:28:22.851Z,34.70
2018-08-11T15:30:55.233Z,34.70
2018-08-11T15:33:38.808Z,34.40
2018-08-11T15:36:16.233Z,34.50
2018-08-11T15:39:05.266Z,34.90
2018-08-11T15:41:39.628Z,33.90
2018-08-11T15:44:11.016Z,33.60
2018-08-11T15:49:29.083Z,33.80
2018-08-11T15:52:00.947Z,33.50
2018-08-11T15:54:31.366Z,33.90
2018-08-11T15:57:03.449Z,33.90
2018-08-11T15:59:33.633Z,34.10
2018-08-11T16:02:05.615Z,34.30
2018-08-11T16:04:39.744Z,34.30
2018-08-11T16:07:14.667Z,34.30
2018-08-11T16:09:46.563Z,34.00
2018-08-11T16:16:19.393Z,34.00
2018-08-11T16:18:49.846Z,34.10
2018-08-11T16:21:37.763Z,33.90
2018-08-11T16:24:20.438Z,34.40
2018-08-11T16:27:06.003Z,34.00
2018-08-11T16:32:48.484Z,34.30
2018-08-11T16:36:19.513Z,34.00
2018-08-11T16:42:32.741Z,34.40
2018-08-11T16:53:26.106Z,35.40
2018-08-11T16:57:14.533Z,34.90
2018-08-11T17:00:06.561Z,35.50
2018-08-11T17:02:58.465Z,35.40
2018-08-11T17:05:51.465Z,35.50
2018-08-11T17:08:26.265Z,35.50
2018-08-11T17:11:08.709Z,35.90
2018-08-11T17:13:46.761Z,35.90
2018-08-11T17:16:22.348Z,35.60
2018-08-11T17:19:19.853Z,36.00
2018-08-11T17:22:00.794Z,35.60
2018-08-11T17:25:01.194Z,36.10
2018-08-11T17:27:33.876Z,36.10
2018-08-11T17:30:05.012Z,36.10
2018-08-11T17:32:45.820Z,36.00
2018-08-11T17:35:25.420Z,36.20
2018-08-11T17:37:57.165Z,36.50
2018-08-11T17:40:30.399Z,37.10
2018-08-11T17:43:02.468Z,36.50
2018-08-11T17:45:37.178Z,36.30
2018-08-11T17:48:13.551Z,36.70
2018-08-11T17:50:54.723Z,36.60
2018-08-11T17:53:46.215Z,37.40
2018-08-11T17:56:24.037Z,37.30
2018-08-11T17:59:06.449Z,37.70
2018-08-11T18:01:42.080Z,37.60
2018-08-11T18:04:21.081Z,37.30
2018-08-11T18:06:54.264Z,37.70
2018-08-11T18:09:43.646Z,38.10
2018-08-11T18:12:26.267Z,38.10
2018-08-11T18:18:24.402Z,37.90
2018-08-11T18:21:06.747Z,38.20
2018-08-11T18:23:39.430Z,38.10
2018-08-11T18:26:16.819Z,37.40
2018-08-11T18:28:58.474Z,37.60
2018-08-11T18:34:28.856Z,37.60
2018-08-11T18:37:16.737Z,37.80
2018-08-11T18:43:50.847Z,38.40
2018-08-11T18:46:30.823Z,38.40
2018-08-11T18:49:10.204Z,38.30
2018-08-11T18:55:40.688Z,38.30
2018-08-11T18:58:27.113Z,38.40
2018-08-11T19:00:59.964Z,39.00
2018-08-11T19:03:35.402Z,39.20
2018-08-11T19:06:07.557Z,39.30
2018-08-11T19:08:55.882Z,39.20
2018-08-11T19:11:34.367Z,39.30
2018-08-11T19:14:10.046Z,39.40
2018-08-11T19:16:52.457Z,39.30
2018-08-11T19:19:36.479Z,39.60
2018-08-11T19:22:09.018Z,39.60
2018-08-11T19:27:38.180Z,39.50
2018-08-11T19:30:13.821Z,39.80
2018-08-11T19:32:47.562Z,39.50
2018-08-11T19:35:24.328Z,39.40
2018-08-11T19:37:57.635Z,39.30
2018-08-11T19:40:38.480Z,39.60
2018-08-11T19:43:11.594Z,40.00
2018-08-11T19:48:31.355Z,39.60
2018-08-11T19:51:12.831Z,40.00
2018-08-11T19:54:05.489Z,40.20
2018-08-11T19:56:36.951Z,40.30
2018-08-11T19:59:11.046Z,40.80
2018-08-11T20:01:49.294Z,40.70
2018-08-11T20:04:30.216Z,40.70
2018-08-11T20:07:19.481Z,40.60
2018-08-11T20:09:53.094Z,40.50
2018-08-11T20:12:33.663Z,40.40
2018-08-11T20:15:22.125Z,40.50
2018-08-11T20:17:57.589Z,40.40
2018-08-11T20:20:28.956Z,40.80
2018-08-11T20:23:01.435Z,40.60
2018-08-11T20:25:43.227Z,40.70
2018-08-11T20:31:02.798Z,41.00
2018-08-11T20:33:40.013Z,40.70
2018-08-11T20:39:15.570Z,40.90
2018-08-11T20:41:46.445Z,41.30
2018-08-11T20:44:18.687Z,41.10
2018-08-11T20:46:59.608Z,41.10
2018-08-11T20:49:31.095Z,41.30
2018-08-11T20:52:20.177Z,41.40
2018-08-11T20:54:52.939Z,41.40
2018-08-11T20:57:43.075Z,41.80
2018-08-11T21:00:29.596Z,41.90
2018-08-11T21:03:44.293Z,41.80
2018-08-11T21:06:19.493Z,42.20
2018-08-11T21:09:02.795Z,42.40
2018-08-11T21:11:39.360Z,42.40
2018-08-11T21:14:21.953Z,43.00
2018-08-11T21:17:03.357Z,43.40
2018-08-11T21:19:47.714Z,43.70
2018-08-11T21:22:23.027Z,43.70
2018-08-11T21:25:56.104Z,45.30
2018-08-11T21:28:52.505Z,43.90
2018-08-11T21:31:27.706Z,45.00
2018-08-11T21:34:04.070Z,44.90
2018-08-11T21:36:35.256Z,45.60
2018-08-11T21:39:20.902Z,45.70
2018-08-11T21:42:23.325Z,45.60
2018-08-11T21:45:05.255Z,46.60
2018-08-11T21:47:42.226Z,45.50
2018-08-11T21:50:33.298Z,46.30
2018-08-11T21:56:00.022Z,47.20
2018-08-11T21:58:40.629Z,45.70
2018-08-11T22:01:35.374Z,46.60
2018-08-11T22:04:08.345Z,46.70
2018-08-11T22:06:41.661Z,46.70
2018-08-11T22:09:34.837Z,46.60
2018-08-11T22:12:20.322Z,46.30
2018-08-11T22:14:53.609Z,46.70
2018-08-11T22:17:36.114Z,46.30
2018-08-11T22:20:25.253Z,46.60
2018-08-11T22:23:14.123Z,46.90
2018-08-11T22:25:52.833Z,48.30
2018-08-11T22:31:43.590Z,50.00
2018-08-11T22:34:29.394Z,50.20
2018-08-11T22:37:05.742Z,50.90
2018-08-11T22:39:58.775Z,52.00
2018-08-11T22:43:07.173Z,52.40
2018-08-11T22:46:39.117Z,52.80
2018-08-11T22:50:00.029Z,52.90
2018-08-11T22:53:09.739Z,54.00
2018-08-11T22:56:23.736Z,54.10
2018-08-11T22:59:22.192Z,55.00
2018-08-11T23:05:00.551Z,56.60
2018-08-11T23:07:35.263Z,56.60
2018-08-11T23:10:10.618Z,57.30
2018-08-11T23:12:46.332Z,57.40
2018-08-11T23:15:37.179Z,59.30
2018-08-11T23:19:02.841Z,59.90
2018-08-11T23:25:22.272Z,61.60
2018-08-11T23:27:54.774Z,63.50
2018-08-11T23:30:26.437Z,63.90
2018-08-11T23:32:56.444Z,64.80
2018-08-11T23:35:27.052Z,65.40
2018-08-11T23:37:57.549Z,66.50
2018-08-11T23:43:48.378Z,67.60
2018-08-11T23:46:25.000Z,67.50
2018-08-11T23:48:58.915Z,68.40
2018-08-11T23:51:30.494Z,68.50
2018-08-11T23:54:04.098Z,68.50
2018-08-11T23:56:40.060Z,69.10
2018-08-11T23:59:12.452Z,69.70
